createdAt,value
2022-11-17T00:50:06.746Z,99482.69
2022-11-17T01:09:40.953Z,99478.38
2022-11-17T01:12:51.966Z,99461.88
2022-11-17T01:16:34.750Z,99482.31
2022-11-17T01:23:19.793Z,99505.34
2022-11-17T01:26:54.640Z,99505.94
2022-11-17T01:37:35.232Z,99484.50
2022-11-17T01:45:06.308Z,99497.16
2022-11-17T02:01:15.914Z,99501.09
2022-11-17T02:05:03.017Z,99502.00
2022-11-17T02:36:20.384Z,99501.09
2022-11-17T02:40:56.840Z,99498.28
2022-11-17T03:01:57.977Z,99472.41
2022-11-17T03:04:41.840Z,99468.25
2022-11-17T03:07:28.077Z,99468.22
2022-11-17T03:10:07.467Z,99460.28
2022-11-17T03:13:13.543Z,99460.22
2022-11-17T03:16:05.516Z,99465.56
2022-11-17T03:18:46.668Z,99457.88
2022-11-17T03:21:58.321Z,99450.06
2022-11-17T03:24:39.920Z,99449.97
2022-11-17T03:27:13.159Z,99455.19
2022-11-17T03:29:43.471Z,99458.91
2022-11-17T03:32:13.190Z,99451.72
2022-11-17T03:34:57.356Z,99473.31
2022-11-17T03:37:29.025Z,99469.84
2022-11-17T03:40:03.774Z,99475.94
2022-11-17T03:42:35.085Z,99471.66
2022-11-17T03:45:23.315Z,99483.59
2022-11-17T03:47:59.603Z,99481.03
2022-11-17T03:50:35.229Z,99476.63
2022-11-17T03:53:04.282Z,99482.38
2022-11-17T03:55:40.400Z,99476.50
2022-11-17T03:58:14.781Z,99466.16
2022-11-17T04:00:43.366Z,99460.09
2022-11-17T04:03:10.746Z,99447.47
2022-11-17T04:05:38.155Z,99450.81
2022-11-17T04:08:05.718Z,99451.41
2022-11-17T04:10:53.212Z,99447.84
2022-11-17T04:13:39.556Z,99455.34
2022-11-17T04:16:07.286Z,99468.44
2022-11-17T04:18:34.814Z,99466.63
2022-11-17T04:21:02.380Z,99468.78
2022-11-17T04:23:29.825Z,99472.59
2022-11-17T04:26:16.136Z,99475.97
2022-11-17T04:28:49.838Z,99496.09
2022-11-17T04:31:30.631Z,99487.91
2022-11-17T04:34:03.292Z,99487.91
2022-11-17T04:36:36.985Z,99487.88
2022-11-17T04:39:04.632Z,99493.72
2022-11-17T04:41:50.749Z,99505.16
2022-11-17T04:44:18.433Z,99506.78
2022-11-17T04:46:46.294Z,99506.16
2022-11-17T04:49:15.113Z,99513.75
2022-11-17T04:51:43.038Z,99503.28
2022-11-17T04:54:13.161Z,99505.19
2022-11-17T04:56:40.685Z,99490.41
2022-11-17T04:59:08.677Z,99494.63
2022-11-17T05:01:36.208Z,99486.06
2022-11-17T05:04:15.562Z,99483.53
2022-11-17T05:06:44.788Z,99488.66
2022-11-17T05:09:14.821Z,99475.28
2022-11-17T05:12:02.514Z,99465.81
2022-11-17T05:14:30.156Z,99458.81
2022-11-17T05:17:11.199Z,99467.22
2022-11-17T05:19:41.873Z,99486.84
2022-11-17T05:22:29.537Z,99490.50
2022-11-17T05:24:57.493Z,99492.09
2022-11-17T05:27:25.280Z,99496.34
2022-11-17T05:29:53.008Z,99487.94
2022-11-17T05:32:20.643Z,99481.13
2022-11-17T05:34:48.328Z,99486.41
2022-11-17T05:37:15.829Z,99474.00
2022-11-17T05:39:43.616Z,99470.50
2022-11-17T05:42:13.739Z,99460.81
2022-11-17T05:44:41.234Z,99475.84
2022-11-17T05:47:08.744Z,99457.81
2022-11-17T05:49:36.243Z,99470.97
2022-11-17T05:52:03.721Z,99459.88
2022-11-17T05:54:31.152Z,99464.06
2022-11-17T05:57:15.027Z,99469.25
2022-11-17T05:59:50.540Z,99459.53
2022-11-17T06:02:26.178Z,99474.03
2022-11-17T06:04:53.758Z,99491.28
2022-11-17T06:07:21.381Z,99489.59
2022-11-17T06:09:50.364Z,99490.38
2022-11-17T06:12:17.856Z,99492.13
2022-11-17T06:14:45.277Z,99492.81
2022-11-17T06:17:22.722Z,99483.16
2022-11-17T06:20:02.770Z,99485.19
2022-11-17T06:22:31.553Z,99471.00
2022-11-17T06:25:00.354Z,99471.91
2022-11-17T06:27:29.293Z,99475.47
2022-11-17T06:29:59.290Z,99483.53
2022-11-17T06:32:28.404Z,99486.13
2022-11-17T06:34:57.236Z,99480.88
2022-11-17T06:37:25.054Z,99477.31
2022-11-17T06:39:53.145Z,99485.16
2022-11-17T06:42:40.577Z,99484.44
2022-11-17T06:45:08.783Z,99473.31
2022-11-17T06:47:36.437Z,99470.56
2022-11-17T06:50:05.191Z,99466.72
2022-11-17T06:52:32.827Z,99464.97
2022-11-17T06:55:00.370Z,99467.53
2022-11-17T06:57:27.855Z,99466.38
2022-11-17T06:59:55.357Z,99462.63
2022-11-17T07:02:22.786Z,99459.16
2022-11-17T07:04:50.194Z,99438.63
2022-11-17T07:07:17.717Z,99442.78
2022-11-17T07:09:45.298Z,99442.00
2022-11-17T07:12:12.801Z,99457.81
2022-11-17T07:14:40.182Z,99457.50
2022-11-17T07:17:07.991Z,99458.81
2022-11-17T07:19:35.417Z,99456.13
2022-11-17T07:22:04.199Z,99451.44
2022-11-17T07:24:31.812Z,99448.03
2022-11-17T07:26:59.317Z,99459.22
2022-11-17T07:29:29.009Z,99462.47
2022-11-17T07:31:56.607Z,99469.94
2022-11-17T07:34:24.015Z,99481.81
2022-11-17T07:36:51.548Z,99485.72
2022-11-17T07:39:21.631Z,99487.69
2022-11-17T07:41:49.659Z,99489.59
2022-11-17T07:44:17.090Z,99490.38
2022-11-17T07:46:44.526Z,99496.25
2022-11-17T07:49:12.131Z,99490.91
2022-11-17T07:51:39.547Z,99496.69
2022-11-17T07:54:07.078Z,99495.78
2022-11-17T07:56:34.800Z,99498.75
2022-11-17T07:59:02.470Z,99509.63
2022-11-17T08:01:30.157Z,99498.72
2022-11-17T08:03:58.636Z,99503.22
2022-11-17T08:06:26.250Z,99497.97
2022-11-17T08:08:54.495Z,99506.56
2022-11-17T08:11:22.094Z,99507.03
2022-11-17T08:13:50.950Z,99518.13
2022-11-17T08:16:18.710Z,99515.91
2022-11-17T08:18:52.168Z,99517.91
2022-11-17T08:21:20.346Z,99521.97
2022-11-17T08:23:52.491Z,99517.53
2022-11-17T08:26:23.863Z,99528.81
2022-11-17T08:28:57.892Z,99522.78
2022-11-17T08:31:26.462Z,99524.56
2022-11-17T08:33:54.153Z,99518.53
2022-11-17T08:36:22.210Z,99528.34
2022-11-17T08:38:49.758Z,99522.38
2022-11-17T08:41:19.083Z,99518.75
2022-11-17T08:43:46.651Z,99529.44
2022-11-17T08:46:14.511Z,99537.00
2022-11-17T08:48:42.375Z,99536.81
2022-11-17T08:51:09.994Z,99528.03
2022-11-17T08:53:37.600Z,99521.28
2022-11-17T08:56:09.330Z,99530.69
2022-11-17T08:58:41.394Z,99541.88
2022-11-17T09:01:10.987Z,99537.94
2022-11-17T09:03:38.823Z,99542.69
2022-11-17T09:06:06.667Z,99536.38
2022-11-17T09:08:49.618Z,99546.41
2022-11-17T09:11:17.235Z,99541.72
2022-11-17T09:13:47.075Z,99539.16
2022-11-17T09:16:16.579Z,99540.59
2022-11-17T09:18:44.600Z,99539.13
2022-11-17T09:21:15.658Z,99535.00
2022-11-17T09:23:43.442Z,99552.25
2022-11-17T09:26:15.743Z,99547.59
2022-11-17T09:28:44.314Z,99540.09
2022-11-17T09:31:14.712Z,99545.28
2022-11-17T09:33:43.338Z,99549.47
2022-11-17T09:36:11.610Z,99559.91
2022-11-17T09:38:40.183Z,99551.47
2022-11-17T09:41:28.472Z,99546.59
2022-11-17T09:44:14.458Z,99549.63
2022-11-17T09:46:46.578Z,99545.75
2022-11-17T09:49:25.820Z,99553.56
2022-11-17T09:51:58.757Z,99560.88
2022-11-17T09:54:45.659Z,99562.81
2022-11-17T09:57:22.646Z,99560.84
2022-11-17T10:00:01.311Z,99572.28
2022-11-17T10:02:29.225Z,99555.81
2022-11-17T10:04:56.838Z,99554.94
2022-11-17T10:07:24.509Z,99547.66
2022-11-17T10:09:54.853Z,99547.34
2022-11-17T10:12:27.251Z,99554.97
2022-11-17T10:14:55.460Z,99557.47
2022-11-17T10:17:23.062Z,99552.25
2022-11-17T10:19:50.626Z,99547.25
2022-11-17T10:22:35.160Z,99545.25
2022-11-17T10:25:02.803Z,99540.34
2022-11-17T10:27:33.069Z,99544.94
2022-11-17T10:30:04.903Z,99534.19
2022-11-17T10:32:36.057Z,99524.84
2022-11-17T10:35:16.799Z,99523.22
2022-11-17T10:37:59.419Z,99524.75
2022-11-17T10:40:32.490Z,99522.41
2022-11-17T10:43:27.286Z,99519.38
2022-11-17T10:45:58.399Z,99526.88
2022-11-17T10:48:30.554Z,99514.59
2022-11-17T10:51:19.523Z,99513.56
2022-11-17T10:54:17.217Z,99498.69
2022-11-17T10:56:49.223Z,99500.75
2022-11-17T10:59:18.977Z,99487.63
2022-11-17T11:01:50.869Z,99483.84
2022-11-17T11:04:36.327Z,99473.88
2022-11-17T11:07:11.848Z,99453.91
2022-11-17T11:09:45.155Z,99467.69
2022-11-17T11:12:18.651Z,99477.63
2022-11-17T11:14:55.257Z,99485.06
2022-11-17T11:17:22.747Z,99491.44
2022-11-17T11:19:53.877Z,99494.78
2022-11-17T11:22:29.275Z,99496.91
2022-11-17T11:25:05.643Z,99493.84
2022-11-17T11:27:38.896Z,99488.22
2022-11-17T11:30:16.727Z,99478.56
2022-11-17T11:32:53.095Z,99479.13
2022-11-17T11:35:33.858Z,99479.84
2022-11-17T11:38:23.032Z,99475.88
2022-11-17T11:41:10.900Z,99481.09
2022-11-17T11:44:23.254Z,99469.13
2022-11-17T11:46:59.754Z,99473.75
2022-11-17T11:49:40.612Z,99472.53
2022-11-17T11:52:18.753Z,99471.03
2022-11-17T11:55:25.633Z,99464.50
2022-11-17T11:58:28.925Z,99468.50
2022-11-17T12:01:08.314Z,99467.16
2022-11-17T12:03:39.747Z,99487.41
2022-11-17T12:06:42.695Z,99475.00
2022-11-17T12:09:10.016Z,99477.22
2022-11-17T12:11:58.870Z,99470.50
2022-11-17T12:14:28.219Z,99468.25
2022-11-17T12:17:13.558Z,99458.81
2022-11-17T12:19:57.867Z,99463.16
2022-11-17T12:22:34.004Z,99463.03
2022-11-17T12:25:32.859Z,99456.16
2022-11-17T12:28:29.411Z,99457.56
2022-11-17T12:31:09.752Z,99461.84
2022-11-17T12:33:53.117Z,99463.44
2022-11-17T12:36:32.257Z,99468.00
2022-11-17T12:39:01.925Z,99468.47
2022-11-17T12:41:47.516Z,99464.31
2022-11-17T12:44:46.110Z,99461.97
2022-11-17T12:47:14.295Z,99471.53
2022-11-17T12:50:10.123Z,99457.66
2022-11-17T12:52:43.429Z,99459.22
2022-11-17T12:55:25.834Z,99466.94
2022-11-17T12:58:18.411Z,99454.81
2022-11-17T13:01:17.962Z,99460.06
2022-11-17T13:03:55.847Z,99467.63
2022-11-17T13:06:38.767Z,99467.03
2022-11-17T13:09:12.668Z,99476.69
2022-11-17T13:11:40.384Z,99478.13
2022-11-17T13:14:09.634Z,99470.31
2022-11-17T13:16:42.584Z,99474.25
2022-11-17T13:19:32.815Z,99472.66
2022-11-17T13:22:01.211Z,99475.94
2022-11-17T13:24:35.522Z,99463.31
2022-11-17T13:27:08.820Z,99459.63
2022-11-17T13:29:36.484Z,99456.59
2022-11-17T13:32:30.612Z,99460.63
2022-11-17T13:34:59.936Z,99462.91
2022-11-17T13:37:29.921Z,99467.88
2022-11-17T13:40:03.253Z,99459.59
2022-11-17T13:42:33.472Z,99442.94
2022-11-17T13:45:04.389Z,99446.94
2022-11-17T13:47:37.925Z,99452.50
2022-11-17T13:50:33.500Z,99442.03
2022-11-17T13:53:03.787Z,99451.81
2022-11-17T13:55:33.454Z,99440.88
2022-11-17T13:58:08.436Z,99445.44
2022-11-17T14:00:36.177Z,99427.41
2022-11-17T14:03:05.802Z,99432.19
2022-11-17T14:05:33.919Z,99428.19
2022-11-17T14:08:14.280Z,99435.06
2022-11-17T14:10:41.842Z,99423.97
2022-11-17T14:13:31.246Z,99434.78
2022-11-17T14:16:00.938Z,99437.25
2022-11-17T14:18:34.434Z,99432.25
2022-11-17T14:21:13.793Z,99430.38
2022-11-17T14:23:42.929Z,99430.56
2022-11-17T14:26:21.888Z,99437.44
2022-11-17T14:28:50.892Z,99437.13
2022-11-17T14:31:19.149Z,99444.59
2022-11-17T14:33:46.883Z,99454.81
2022-11-17T14:36:17.986Z,99438.06
2022-11-17T14:38:46.511Z,99440.41
2022-11-17T14:41:16.462Z,99443.47
2022-11-17T14:43:44.673Z,99440.31
2022-11-17T14:46:18.923Z,99460.09
2022-11-17T14:48:46.680Z,99449.47
2022-11-17T14:51:16.389Z,99445.53
2022-11-17T14:53:44.590Z,99444.19
2022-11-17T14:56:23.661Z,99449.13
2022-11-17T14:59:11.197Z,99450.59
2022-11-17T15:01:38.896Z,99451.25
2022-11-17T15:04:43.021Z,99462.28
2022-11-17T15:07:02.129Z,99461.97
2022-11-17T15:09:33.044Z,99452.75
2022-11-17T15:12:00.712Z,99441.53
2022-11-17T15:14:53.472Z,99449.69
2022-11-17T15:17:20.993Z,99436.22
2022-11-17T15:19:48.530Z,99429.31
2022-11-17T15:22:16.042Z,99432.72
2022-11-17T15:24:43.940Z,99445.00
2022-11-17T15:27:11.556Z,99444.59
2022-11-17T15:29:38.970Z,99452.38
2022-11-17T15:32:07.821Z,99457.56
2022-11-17T15:34:37.670Z,99450.91
2022-11-17T15:37:05.512Z,99461.06
2022-11-17T15:39:33.107Z,99472.94
2022-11-17T15:42:00.806Z,99478.13
2022-11-17T15:44:29.115Z,99475.88
2022-11-17T15:46:56.596Z,99470.19
2022-11-17T15:49:24.233Z,99463.34
2022-11-17T15:51:51.867Z,99459.66
2022-11-17T15:54:21.046Z,99457.13
2022-11-17T15:56:49.039Z,99461.03
2022-11-17T15:59:16.903Z,99462.19
2022-11-17T16:01:44.861Z,99472.94
2022-11-17T16:04:17.239Z,99464.81
2022-11-17T16:06:46.592Z,99467.97
2022-11-17T16:09:15.941Z,99464.31
2022-11-17T16:11:44.065Z,99473.19
2022-11-17T16:14:11.894Z,99484.56
2022-11-17T16:16:39.694Z,99489.03
2022-11-17T16:19:07.416Z,99485.59
2022-11-17T16:21:35.027Z,99474.41
2022-11-17T16:24:03.376Z,99471.69
2022-11-17T16:26:32.037Z,99479.59
2022-11-17T16:29:01.833Z,99493.16
2022-11-17T16:31:31.965Z,99494.53
2022-11-17T16:34:01.800Z,99492.59
2022-11-17T16:36:36.154Z,99491.00
2022-11-17T16:39:08.138Z,99482.31
2022-11-17T16:41:47.450Z,99486.03
2022-11-17T16:44:17.640Z,99491.19
2022-11-17T16:46:53.210Z,99495.84
2022-11-17T16:49:24.292Z,99482.44
2022-11-17T16:51:56.394Z,99491.06
2022-11-17T16:54:23.955Z,99483.97
2022-11-17T16:56:51.550Z,99492.75
2022-11-17T16:59:19.788Z,99483.78
2022-11-17T17:01:55.021Z,99486.03
2022-11-17T17:04:22.500Z,99477.16
2022-11-17T17:06:50.005Z,99489.16
2022-11-17T17:09:21.758Z,99485.16
2022-11-17T17:11:52.981Z,99494.81
2022-11-17T17:14:20.600Z,99489.97
2022-11-17T17:16:48.599Z,99495.88
2022-11-17T17:19:17.951Z,99494.59
2022-11-17T17:21:46.071Z,99477.66
2022-11-17T17:24:13.594Z,99473.13
2022-11-17T17:26:41.944Z,99470.16
2022-11-17T17:29:11.924Z,99472.75
2022-11-17T17:31:41.456Z,99482.78
2022-11-17T17:34:10.754Z,99498.44
2022-11-17T17:36:38.677Z,99483.59
2022-11-17T17:39:07.062Z,99496.81
2022-11-17T17:41:39.371Z,99489.09
2022-11-17T17:44:08.654Z,99484.34
2022-11-17T17:46:38.625Z,99473.69
2022-11-17T17:49:06.938Z,99479.00
2022-11-17T18:12:26.049Z,99484.00
2022-11-17T18:14:48.526Z,99478.56
2022-11-17T18:17:21.244Z,99470.41
2022-11-17T18:19:54.376Z,99462.16
2022-11-17T18:22:25.761Z,99458.91
2022-11-17T18:25:07.981Z,99450.84
2022-11-17T18:27:45.103Z,99460.91
2022-11-17T18:30:40.971Z,99462.03
2022-11-17T18:33:19.310Z,99460.84
2022-11-17T18:38:54.026Z,99456.84
2022-11-17T18:41:39.542Z,99456.75
2022-11-17T18:44:20.595Z,99456.38
2022-11-17T18:47:02.500Z,99449.66
2022-11-17T18:49:50.199Z,99439.94
2022-11-17T18:52:31.503Z,99441.03
2022-11-17T18:54:59.754Z,99433.78
2022-11-17T18:57:30.021Z,99424.06
2022-11-17T19:00:00.907Z,99425.16
2022-11-17T19:02:35.419Z,99429.50
2022-11-17T19:05:10.697Z,99428.94
2022-11-17T19:07:56.242Z,99451.03
2022-11-17T19:10:36.038Z,99443.56
2022-11-17T19:13:09.221Z,99445.63
2022-11-17T19:15:59.804Z,99440.28
2022-11-17T19:18:32.063Z,99442.91
2022-11-17T19:21:15.044Z,99438.25
2022-11-17T19:23:52.191Z,99438.72
2022-11-17T19:26:43.831Z,99429.72
2022-11-17T19:29:17.552Z,99437.94
2022-11-17T19:31:49.437Z,99438.13
2022-11-17T19:34:19.797Z,99422.88
2022-11-17T19:36:53.140Z,99419.31
2022-11-17T19:39:25.716Z,99421.38
2022-11-17T19:41:58.387Z,99422.78
2022-11-17T19:44:42.017Z,99420.81
2022-11-17T19:47:22.522Z,99415.09
2022-11-17T19:50:11.614Z,99412.63
2022-11-17T19:52:47.242Z,99416.66
2022-11-17T19:55:18.626Z,99427.31
2022-11-17T19:57:56.609Z,99416.06
2022-11-17T20:00:35.195Z,99408.22
2022-11-17T20:03:14.111Z,99407.78
2022-11-17T20:05:49.207Z,99411.38
2022-11-17T20:08:18.075Z,99411.06
2022-11-17T20:10:51.827Z,99416.69
2022-11-17T20:13:19.706Z,99395.25
2022-11-17T20:16:08.838Z,99394.28
2022-11-17T20:18:42.394Z,99387.28
2022-11-17T20:21:19.785Z,99379.88
2022-11-17T20:24:06.644Z,99382.09
2022-11-17T20:26:47.650Z,99393.34
2022-11-17T20:29:34.505Z,99397.63
2022-11-17T20:32:04.734Z,99394.16
2022-11-17T20:34:34.734Z,99391.78
2022-11-17T20:37:11.374Z,99373.47
2022-11-17T20:39:42.710Z,99376.75
2022-11-17T20:42:26.228Z,99372.19
2022-11-17T20:44:59.537Z,99372.50
2022-11-17T20:47:36.521Z,99373.47
2022-11-17T20:50:14.369Z,99383.78
2022-11-17T20:53:01.233Z,99374.63
2022-11-17T20:55:36.587Z,99376.03
2022-11-17T20:58:09.208Z,99376.41
2022-11-17T21:00:36.989Z,99390.94
2022-11-17T21:03:07.002Z,99401.69
2022-11-17T21:05:34.474Z,99387.44
2022-11-17T21:08:01.930Z,99382.78
2022-11-17T21:10:29.626Z,99378.56
2022-11-17T21:12:58.133Z,99387.81
2022-11-17T21:15:25.579Z,99388.97
2022-11-17T21:18:11.357Z,99386.00
2022-11-17T21:20:43.006Z,99391.09
2022-11-17T21:23:10.599Z,99382.88
2022-11-17T21:25:38.065Z,99391.84
2022-11-17T21:28:05.508Z,99401.41
2022-11-17T21:30:33.765Z,99405.81
2022-11-17T21:33:01.121Z,99394.31
2022-11-17T21:35:28.643Z,99387.09
2022-11-17T21:37:56.538Z,99381.78
2022-11-17T21:40:24.197Z,99388.44
2022-11-17T21:42:56.255Z,99379.06
2022-11-17T21:45:23.920Z,99379.06
2022-11-17T21:47:56.481Z,99366.25
2022-11-17T21:50:26.893Z,99369.03
2022-11-17T21:52:57.003Z,99379.16
2022-11-17T21:55:24.938Z,99381.38
2022-11-17T21:57:57.420Z,99371.75
2022-11-17T22:00:26.234Z,99366.38
2022-11-17T22:02:54.375Z,99372.44
2022-11-17T22:05:25.121Z,99371.91
2022-11-17T22:07:55.375Z,99382.41
2022-11-17T22:10:23.182Z,99371.34
2022-11-17T22:12:50.938Z,99378.53
2022-11-17T22:15:18.727Z,99376.03
2022-11-17T22:17:46.551Z,99377.63
2022-11-17T22:20:14.425Z,99374.84
2022-11-17T22:22:42.123Z,99378.59
2022-11-17T22:25:43.186Z,99392.00
2022-11-17T22:28:08.267Z,99393.28
2022-11-17T22:30:39.151Z,99365.34
2022-11-17T22:33:06.883Z,99347.91
2022-11-17T22:51:11.261Z,99360.91
2022-11-17T23:18:40.201Z,99316.47
2022-11-17T23:22:59.213Z,99312.25
2022-11-17T23:25:42.096Z,99297.72
2022-11-17T23:38:38.660Z,99310.03
2022-11-17T23:45:42.594Z,99292.19
2022-11-17T23:48:38.785Z,99298.34
2022-11-17T23:51:49.587Z,99304.75
2022-11-17T23:54:51.941Z,99308.88
2022-11-17T23:57:46.983Z,99301.75
